Wetterdaten: Woche 24.12.07 - 30.12.07 (KW52)
Datum Zeit Temperatur Luftfeuchte Luftdruck Niederschlag Wind Richtung Sonnenschein Solar Taupunkt Windchill Windben
24.12.2007 00:00 -4.6 C 92 % 1031.5 hPa 0.0 l/m 0.2 km/h (0 Bft) O 0.00 h 0 W/m -5.7 C -4.6 C 1.1 km/h (1 Bft)
24.12.2007 01:00 -4.7 C 91 % 1031.3 hPa 0.0 l/m 0.8 km/h (0 Bft) O 0.00 h 0 W/m -5.9 C -4.8 C 1.9 km/h (1 Bft)
24.12.2007 02:00 -4.8 C 91 % 1031.2 hPa 0.0 l/m 2.1 km/h (1 Bft) O-SO 0.00 h 0 W/m -6.0 C -5.0 C 4.0 km/h (1 Bft)
24.12.2007 03:00 -5.1 C 91 % 1031.3 hPa 0.0 l/m 2.3 km/h (1 Bft) SO 0.00 h 0 W/m -6.4 C -5.4 C 4.6 km/h (1 Bft)
24.12.2007 04:00 -5.3 C 91 % 1031.4 hPa 0.0 l/m 2.3 km/h (1 Bft) SO 0.00 h 0 W/m -6.5 C -5.8 C 4.6 km/h (1 Bft)
24.12.2007 05:00 -5.3 C 92 % 1031.4 hPa 0.0 l/m 2.3 km/h (1 Bft) SO 0.00 h 0 W/m -6.4 C -5.7 C 4.4 km/h (1 Bft)
24.12.2007 06:00 -5.3 C 92 % 1031.4 hPa 0.0 l/m 2.0 km/h (1 Bft) O-SO 0.00 h 0 W/m -6.4 C -5.5 C 4.3 km/h (1 Bft)
24.12.2007 07:00 -5.3 C 92 % 1031.7 hPa 0.0 l/m 0.6 km/h (0 Bft) O 0.00 h 0 W/m -6.4 C -5.3 C 2.2 km/h (1 Bft)
24.12.2007 08:00 -5.2 C 92 % 1031.8 hPa 0.0 l/m 0.2 km/h (0 Bft) O 0.00 h 9 W/m -6.3 C -5.2 C 0.9 km/h (0 Bft)
24.12.2007 09:00 -4.8 C 92 % 1032.0 hPa 0.0 l/m 1.5 km/h (1 Bft) O-SO 0.00 h 30 W/m -6.0 C -4.9 C 3.4 km/h (1 Bft)
24.12.2007 10:00 -4.4 C 91 % 1032.3 hPa 0.0 l/m 2.7 km/h (1 Bft) O-SO 0.00 h 65 W/m -5.6 C -5.1 C 4.4 km/h (1 Bft)
24.12.2007 11:00 -4.0 C 89 % 1032.3 hPa 0.0 l/m 1.5 km/h (1 Bft) O-SO 0.00 h 90 W/m -5.6 C -4.1 C 3.5 km/h (1 Bft)
24.12.2007 12:00 -3.4 C 87 % 1031.9 hPa 0.0 l/m 0.9 km/h (0 Bft) O-NO 0.00 h 103 W/m -5.3 C -3.4 C 2.9 km/h (1 Bft)
24.12.2007 13:00 -3.1 C 86 % 1031.5 hPa 0.0 l/m 1.2 km/h (1 Bft) O 0.00 h 94 W/m -5.1 C -3.2 C 3.1 km/h (1 Bft)
24.12.2007 14:00 -2.9 C 86 % 1031.2 hPa 0.0 l/m 0.7 km/h (0 Bft) O 0.00 h 80 W/m -4.8 C -2.9 C 2.2 km/h (1 Bft)
24.12.2007 15:00 -2.8 C 87 % 1031.2 hPa 0.0 l/m 0.3 km/h (0 Bft) O 0.00 h 47 W/m -4.7 C -2.8 C 1.0 km/h (0 Bft)
24.12.2007 16:00 -2.9 C 86 % 1031.3 hPa 0.0 l/m 0.2 km/h (0 Bft) O-SO 0.00 h 12 W/m -4.9 C -2.9 C 1.1 km/h (1 Bft)
24.12.2007 17:00 -3.4 C 88 % 1031.2 hPa 0.0 l/m 3.4 km/h (1 Bft) O-SO 0.00 h 0 W/m -5.1 C -4.2 C 4.8 km/h (1 Bft)
24.12.2007 18:00 -3.7 C 90 % 1031.5 hPa 0.0 l/m 3.6 km/h (1 Bft) O-SO 0.00 h 0 W/m -5.1 C -4.6 C 5.5 km/h (1 Bft)
24.12.2007 19:00 -4.0 C 90 % 1031.7 hPa 0.0 l/m 2.4 km/h (1 Bft) O-SO 0.00 h 0 W/m -5.5 C -4.4 C 4.3 km/h (1 Bft)
24.12.2007 20:00 -4.2 C 90 % 1031.9 hPa 0.0 l/m 1.5 km/h (1 Bft) O-SO 0.00 h 0 W/m -5.6 C -4.2 C 3.4 km/h (1 Bft)
24.12.2007 21:00 -4.3 C 91 % 1031.9 hPa 0.0 l/m 1.0 km/h (0 Bft) N-NO 0.00 h 0 W/m -5.5 C -4.3 C 2.9 km/h (1 Bft)
24.12.2007 22:00 -4.3 C 91 % 1031.9 hPa 0.0 l/m 1.2 km/h (1 Bft) SO 0.00 h 0 W/m -5.6 C -4.4 C 2.9 km/h (1 Bft)
24.12.2007 23:00 -4.4 C 91 % 1031.8 hPa 0.0 l/m 0.5 km/h (0 Bft) O-NO 0.00 h 0 W/m -5.7 C -4.4 C 2.1 km/h (1 Bft)
25.12.2007 00:00 -4.6 C 90 % 1031.4 hPa 0.0 l/m 1.6 km/h (1 Bft) O 0.00 h 0 W/m -6.0 C -4.6 C 3.9 km/h (1 Bft)
25.12.2007 01:00 -4.7 C 91 % 1031.3 hPa 0.0 l/m 0.5 km/h (0 Bft) O 0.00 h 0 W/m -5.9 C -4.7 C 1.5 km/h (1 Bft)
25.12.2007 02:00 -4.6 C 91 % 1030.8 hPa 0.0 l/m 0.2 km/h (0 Bft) O-SO 0.00 h 0 W/m -5.8 C -4.6 C 1.1 km/h (0 Bft)
25.12.2007 03:00 -4.6 C 91 % 1030.7 hPa 0.0 l/m 1.7 km/h (1 Bft) O-SO 0.00 h 0 W/m -5.8 C -5.0 C 3.2 km/h (1 Bft)
25.12.2007 04:00 -4.5 C 91 % 1030.2 hPa 0.0 l/m 1.1 km/h (1 Bft) O 0.00 h 0 W/m -5.8 C -4.7 C 2.5 km/h (1 Bft)
25.12.2007 05:00 -4.7 C 91 % 1029.7 hPa 0.0 l/m 2.0 km/h (1 Bft) O-SO 0.00 h 0 W/m -5.9 C -5.0 C 4.0 km/h (1 Bft)
25.12.2007 06:00 -4.8 C 90 % 1029.3 hPa 0.0 l/m 2.2 km/h (1 Bft) O 0.00 h 0 W/m -6.1 C -5.1 C 4.3 km/h (1 Bft)
25.12.2007 07:00 -4.8 C 90 % 1029.5 hPa 0.0 l/m 1.7 km/h (1 Bft) O 0.00 h 0 W/m -6.2 C -5.0 C 3.2 km/h (1 Bft)
25.12.2007 08:00 -5.0 C 90 % 1029.6 hPa 0.0 l/m 1.4 km/h (1 Bft) O-SO 0.00 h 9 W/m -6.3 C -5.0 C 3.3 km/h (1 Bft)
25.12.2007 09:00 -4.9 C 90 % 1029.4 hPa 0.0 l/m 0.7 km/h (0 Bft) O 0.00 h 26 W/m -6.3 C -4.9 C 2.4 km/h (1 Bft)
25.12.2007 10:00 -5.0 C 91 % 1029.3 hPa 0.0 l/m 2.1 km/h (1 Bft) O 0.00 h 59 W/m -6.3 C -5.1 C 4.8 km/h (1 Bft)
25.12.2007 11:00 -4.5 C 90 % 1028.7 hPa 0.0 l/m 1.1 km/h (1 Bft) O 0.00 h 85 W/m -5.9 C -4.6 C 3.4 km/h (1 Bft)
25.12.2007 12:00 -3.7 C 88 % 1027.7 hPa 0.0 l/m 0.9 km/h (0 Bft) O 0.00 h 99 W/m -5.4 C -3.7 C 3.0 km/h (1 Bft)
25.12.2007 13:00 -3.2 C 87 % 1026.8 hPa 0.0 l/m 1.5 km/h (1 Bft) O 0.00 h 97 W/m -5.1 C -3.2 C 3.8 km/h (1 Bft)
25.12.2007 14:00 -2.8 C 86 % 1026.2 hPa 0.0 l/m 0.9 km/h (0 Bft) O 0.00 h 90 W/m -4.8 C -2.8 C 2.9 km/h (1 Bft)
25.12.2007 15:00 -2.8 C 86 % 1025.9 hPa 0.0 l/m 1.9 km/h (1 Bft) O-SO 0.00 h 45 W/m -4.9 C -3.0 C 3.9 km/h (1 Bft)
25.12.2007 16:00 -3.4 C 87 % 1026.0 hPa 0.0 l/m 2.5 km/h (1 Bft) O-SO 0.00 h 9 W/m -5.2 C -3.6 C 4.8 km/h (1 Bft)
25.12.2007 17:00 -4.0 C 89 % 1025.9 hPa 0.0 l/m 1.9 km/h (1 Bft) O 0.00 h 0 W/m -5.6 C -4.2 C 4.1 km/h (1 Bft)
25.12.2007 18:00 -4.1 C 90 % 1026.1 hPa 0.0 l/m 1.3 km/h (1 Bft) O 0.00 h 0 W/m -5.5 C -4.1 C 3.1 km/h (1 Bft)
25.12.2007 19:00 -3.9 C 90 % 1026.2 hPa 0.0 l/m 0.8 km/h (0 Bft) O-NO 0.00 h 0 W/m -5.3 C -3.9 C 2.1 km/h (1 Bft)
25.12.2007 20:00 -3.7 C 90 % 1026.1 hPa 0.0 l/m 0.5 km/h (0 Bft) NO 0.00 h 0 W/m -5.1 C -3.7 C 1.6 km/h (1 Bft)
25.12.2007 21:00 -3.6 C 90 % 1025.9 hPa 0.0 l/m 0.8 km/h (0 Bft) O-SO 0.00 h 0 W/m -5.0 C -3.6 C 2.3 km/h (1 Bft)
25.12.2007 22:00 -3.6 C 91 % 1025.8 hPa 0.0 l/m 0.3 km/h (0 Bft) O-SO 0.00 h 0 W/m -4.8 C -3.6 C 1.0 km/h (0 Bft)
25.12.2007 23:00 -3.4 C 91 % 1025.7 hPa 0.0 l/m 1.6 km/h (1 Bft) O-SO 0.00 h 0 W/m -4.6 C -3.4 C 2.9 km/h (1 Bft)
26.12.2007 00:00 -3.3 C 90 % 1025.8 hPa 0.0 l/m 1.9 km/h (1 Bft) O-SO 0.00 h 0 W/m -4.7 C -3.5 C 3.7 km/h (1 Bft)
26.12.2007 01:00 -3.3 C 89 % 1025.8 hPa 0.0 l/m 1.5 km/h (1 Bft) O-SO 0.00 h 0 W/m -4.8 C -3.3 C 2.7 km/h (1 Bft)
26.12.2007 02:00 -3.3 C 89 % 1025.8 hPa 0.0 l/m 0.4 km/h (0 Bft) O-SO 0.00 h 0 W/m -4.8 C -3.3 C 1.1 km/h (0 Bft)
26.12.2007 03:00 -3.3 C 89 % 1025.8 hPa 0.0 l/m 1.0 km/h (0 Bft) S-SO 0.00 h 0 W/m -4.8 C -3.5 C 2.4 km/h (1 Bft)
26.12.2007 04:00 -3.3 C 88 % 1025.9 hPa 0.0 l/m 0.9 km/h (0 Bft) W-NW 0.00 h 0 W/m -5.0 C -3.3 C 2.4 km/h (1 Bft)
26.12.2007 05:00 -3.5 C 87 % 1026.4 hPa 0.0 l/m 1.1 km/h (1 Bft) SW 0.00 h 0 W/m -5.3 C -3.5 C 3.0 km/h (1 Bft)
26.12.2007 06:00 -3.6 C 88 % 1026.9 hPa 0.0 l/m 2.6 km/h (1 Bft) S-SW 0.00 h 0 W/m -5.4 C -3.8 C 5.2 km/h (1 Bft)
26.12.2007 07:00 -3.7 C 88 % 1027.7 hPa 0.0 l/m 2.2 km/h (1 Bft) S-SO 0.00 h 0 W/m -5.3 C -4.1 C 4.4 km/h (1 Bft)
26.12.2007 08:00 -3.3 C 89 % 1028.4 hPa 0.0 l/m 1.4 km/h (1 Bft) S-SW 0.00 h 14 W/m -4.9 C -3.5 C 3.4 km/h (1 Bft)
26.12.2007 09:00 -2.9 C 89 % 1029.0 hPa 0.0 l/m 1.1 km/h (1 Bft) S-SO 0.00 h 41 W/m -4.5 C -2.9 C 2.9 km/h (1 Bft)
26.12.2007 10:00 -2.3 C 88 % 1029.6 hPa 0.0 l/m 1.5 km/h (1 Bft) S-SO 0.00 h 56 W/m -4.0 C -2.4 C 3.7 km/h (1 Bft)
26.12.2007 11:00 -1.7 C 87 % 1029.9 hPa 0.0 l/m 2.6 km/h (1 Bft) SW 0.00 h 73 W/m -3.6 C -1.9 C 5.6 km/h (1 Bft)
26.12.2007 12:00 -1.2 C 85 % 1030.0 hPa 0.0 l/m 3.4 km/h (1 Bft) SW 0.00 h 68 W/m -3.3 C -1.5 C 6.6 km/h (2 Bft)
26.12.2007 13:00 -0.6 C 84 % 1030.3 hPa 0.0 l/m 1.7 km/h (1 Bft) W-SW 0.00 h 54 W/m -3.0 C -0.7 C 3.9 km/h (1 Bft)
26.12.2007 14:00 -0.2 C 86 % 1030.7 hPa 0.2 l/m 0.9 km/h (0 Bft) S 0.00 h 28 W/m -2.3 C -0.2 C 2.4 km/h (1 Bft)
26.12.2007 15:00 -0.3 C 89 % 1031.6 hPa 0.0 l/m 1.7 km/h (1 Bft) S-SO 0.00 h 19 W/m -1.8 C -0.3 C 3.9 km/h (1 Bft)
26.12.2007 16:00 -0.4 C 91 % 1032.2 hPa 0.0 l/m 4.1 km/h (1 Bft) S 0.00 h 6 W/m -1.6 C -1.2 C 7.5 km/h (2 Bft)
26.12.2007 17:00 -0.4 C 92 % 1033.0 hPa 0.0 l/m 3.7 km/h (1 Bft) S-SO 0.00 h 0 W/m -1.5 C -1.3 C 6.5 km/h (2 Bft)
26.12.2007 18:00 -0.2 C 92 % 1033.6 hPa 0.0 l/m 0.8 km/h (0 Bft) SO 0.00 h 0 W/m -1.3 C -0.2 C 2.3 km/h (1 Bft)
26.12.2007 19:00 -0.1 C 92 % 1034.3 hPa 0.0 l/m 1.0 km/h (0 Bft) S-SO 0.00 h 0 W/m -1.2 C -0.1 C 2.3 km/h (1 Bft)
26.12.2007 20:00 -0.1 C 92 % 1034.7 hPa 0.0 l/m 0.2 km/h (0 Bft) S-SO 0.00 h 0 W/m -1.2 C -0.1 C 0.7 km/h (0 Bft)
26.12.2007 21:00 -0.1 C 92 % 1035.3 hPa 0.0 l/m 0.1 km/h (0 Bft) S-SO 0.00 h 0 W/m -1.2 C -0.1 C 0.5 km/h (0 Bft)
26.12.2007 22:00 0.1 C 92 % 1035.4 hPa 0.0 l/m 0.4 km/h (0 Bft) S-SO 0.00 h 0 W/m -1.0 C 0.1 C 1.5 km/h (1 Bft)
26.12.2007 23:00 0.1 C 93 % 1035.6 hPa 0.0 l/m 0.0 km/h (0 Bft) N 0.00 h 0 W/m -0.9 C 0.1 C 0.2 km/h (0 Bft)
27.12.2007 00:00 -0.0 C 93 % 1035.6 hPa 0.0 l/m 0.2 km/h (0 Bft) S-SO 0.00 h 0 W/m -1.0 C -0.0 C 0.6 km/h (0 Bft)
27.12.2007 01:00 -0.2 C 93 % 1035.5 hPa 0.0 l/m 0.5 km/h (0 Bft) S-SW 0.00 h 0 W/m -1.1 C -0.2 C 1.2 km/h (1 Bft)
27.12.2007 02:00 -0.4 C 94 % 1035.7 hPa 0.0 l/m 0.7 km/h (0 Bft) N-NO 0.00 h 0 W/m -1.2 C -0.4 C 2.0 km/h (1 Bft)
27.12.2007 03:00 -0.6 C 95 % 1036.1 hPa 0.0 l/m 0.4 km/h (0 Bft) O 0.00 h 0 W/m -1.4 C -0.6 C 1.4 km/h (1 Bft)
27.12.2007 04:00 -0.9 C 95 % 1036.3 hPa 0.0 l/m 0.7 km/h (0 Bft) O 0.00 h 0 W/m -1.6 C -0.9 C 1.6 km/h (1 Bft)
27.12.2007 05:00 -1.1 C 95 % 1036.5 hPa 0.0 l/m 0.3 km/h (0 Bft) O-NO 0.00 h 0 W/m -1.8 C -1.1 C 1.2 km/h (1 Bft)
27.12.2007 06:00 -1.5 C 95 % 1036.8 hPa 0.0 l/m 0.3 km/h (0 Bft) NO 0.00 h 0 W/m -2.2 C -1.5 C 0.8 km/h (0 Bft)
27.12.2007 07:00 -1.7 C 96 % 1036.8 hPa 0.0 l/m 1.5 km/h (1 Bft) W-NW 0.00 h 0 W/m -2.2 C -1.7 C 3.0 km/h (1 Bft)
27.12.2007 08:00 -2.0 C 96 % 1037.0 hPa 0.0 l/m 1.1 km/h (1 Bft) W 0.00 h 8 W/m -2.5 C -2.0 C 2.3 km/h (1 Bft)
27.12.2007 09:00 -1.9 C 96 % 1037.3 hPa 0.0 l/m 0.4 km/h (0 Bft) W 0.00 h 25 W/m -2.4 C -1.9 C 1.2 km/h (1 Bft)
27.12.2007 10:00 -1.6 C 97 % 1037.6 hPa 0.0 l/m 1.4 km/h (1 Bft) W 0.00 h 52 W/m -2.0 C -1.6 C 2.9 km/h (1 Bft)
27.12.2007 11:00 -1.1 C 97 % 1037.4 hPa 0.0 l/m 1.0 km/h (0 Bft) W 0.00 h 61 W/m -1.6 C -1.1 C 2.3 km/h (1 Bft)
27.12.2007 12:00 -0.6 C 96 % 1037.1 hPa 0.0 l/m 0.5 km/h (0 Bft) W 0.00 h 58 W/m -1.2 C -0.6 C 1.4 km/h (1 Bft)
27.12.2007 13:00 0.1 C 95 % 1036.5 hPa 0.0 l/m 0.4 km/h (0 Bft) N-NW 0.00 h 49 W/m -0.7 C 0.1 C 1.2 km/h (1 Bft)
27.12.2007 14:00 0.2 C 93 % 1036.5 hPa 0.0 l/m 1.1 km/h (1 Bft) O 0.00 h 38 W/m -0.9 C 0.2 C 2.7 km/h (1 Bft)
27.12.2007 15:00 0.0 C 92 % 1036.8 hPa 0.0 l/m 1.6 km/h (1 Bft) N-NO 0.00 h 19 W/m -1.2 C -0.1 C 3.5 km/h (1 Bft)
27.12.2007 16:00 -0.2 C 91 % 1037.1 hPa 0.0 l/m 0.3 km/h (0 Bft) N-NO 0.00 h 6 W/m -1.4 C -0.2 C 1.1 km/h (1 Bft)
27.12.2007 17:00 -0.2 C 92 % 1037.5 hPa 0.0 l/m 0.2 km/h (0 Bft) N-NO 0.00 h 0 W/m -1.3 C -0.2 C 0.7 km/h (0 Bft)
27.12.2007 18:00 -0.1 C 92 % 1037.7 hPa 0.0 l/m 2.0 km/h (1 Bft) W-NW 0.00 h 0 W/m -1.2 C -0.4 C 3.7 km/h (1 Bft)
27.12.2007 19:00 -0.3 C 92 % 1037.8 hPa 0.0 l/m 0.5 km/h (0 Bft) N-NW 0.00 h 0 W/m -1.4 C -0.3 C 2.0 km/h (1 Bft)
27.12.2007 20:00 -0.5 C 93 % 1037.9 hPa 0.0 l/m 0.8 km/h (0 Bft) O 0.00 h 0 W/m -1.5 C -0.5 C 2.5 km/h (1 Bft)
27.12.2007 21:00 -0.7 C 93 % 1037.9 hPa 0.0 l/m 0.9 km/h (0 Bft) O-NO 0.00 h 0 W/m -1.7 C -0.8 C 2.1 km/h (1 Bft)
27.12.2007 22:00 -0.8 C 93 % 1037.5 hPa 0.0 l/m 1.0 km/h (0 Bft) N-NO 0.00 h 0 W/m -1.9 C -0.8 C 2.6 km/h (1 Bft)
27.12.2007 23:00 -0.9 C 93 % 1037.4 hPa 0.0 l/m 1.1 km/h (1 Bft) N-NO 0.00 h 0 W/m -1.9 C -0.9 C 2.7 km/h (1 Bft)
28.12.2007 00:00 -0.9 C 93 % 1036.8 hPa 0.0 l/m 0.7 km/h (0 Bft) NO 0.00 h 0 W/m -1.9 C -0.9 C 2.2 km/h (1 Bft)
28.12.2007 01:00 -1.0 C 93 % 1036.3 hPa 0.0 l/m 0.8 km/h (0 Bft) N-NO 0.00 h 0 W/m -2.0 C -1.0 C 2.4 km/h (1 Bft)
28.12.2007 02:00 -1.2 C 93 % 1036.2 hPa 0.0 l/m 2.9 km/h (1 Bft) N 0.00 h 0 W/m -2.2 C -1.4 C 4.9 km/h (1 Bft)
28.12.2007 03:00 -1.4 C 93 % 1036.3 hPa 0.0 l/m 1.5 km/h (1 Bft) N-NW 0.00 h 0 W/m -2.4 C -1.5 C 2.8 km/h (1 Bft)
28.12.2007 04:00 -1.4 C 93 % 1036.1 hPa 0.0 l/m 0.5 km/h (0 Bft) O-SO 0.00 h 0 W/m -2.4 C -1.5 C 1.1 km/h (1 Bft)
28.12.2007 05:00 -1.4 C 93 % 1036.1 hPa 0.0 l/m 0.4 km/h (0 Bft) N 0.00 h 0 W/m -2.4 C -1.4 C 1.2 km/h (1 Bft)
28.12.2007 06:00 -1.4 C 92 % 1036.0 hPa 0.0 l/m 0.2 km/h (0 Bft) O 0.00 h 0 W/m -2.5 C -1.4 C 1.0 km/h (0 Bft)
28.12.2007 07:00 -1.4 C 92 % 1035.8 hPa 0.0 l/m 0.1 km/h (0 Bft) O 0.00 h 0 W/m -2.5 C -1.4 C 0.7 km/h (0 Bft)
28.12.2007 08:00 -1.4 C 91 % 1035.6 hPa 0.0 l/m 2.5 km/h (1 Bft) O-SO 0.00 h 7 W/m -2.7 C -1.9 C 4.3 km/h (1 Bft)
28.12.2007 09:00 -1.4 C 88 % 1035.6 hPa 0.0 l/m 1.0 km/h (0 Bft) O 0.00 h 18 W/m -3.1 C -1.4 C 2.1 km/h (1 Bft)
28.12.2007 10:00 -1.2 C 88 % 1035.6 hPa 0.0 l/m 1.0 km/h (0 Bft) W-SW 0.00 h 38 W/m -2.9 C -1.2 C 2.5 km/h (1 Bft)
28.12.2007 11:00 -1.1 C 87 % 1035.3 hPa 0.0 l/m 0.7 km/h (0 Bft) S-SW 0.00 h 55 W/m -3.0 C -1.2 C 1.9 km/h (1 Bft)
28.12.2007 12:00 -1.0 C 86 % 1034.8 hPa 0.0 l/m 1.0 km/h (0 Bft) S-SO 0.00 h 66 W/m -3.0 C -1.0 C 2.4 km/h (1 Bft)
28.12.2007 13:00 -0.9 C 84 % 1034.3 hPa 0.0 l/m 2.0 km/h (1 Bft) S-SW 0.00 h 77 W/m -3.2 C -1.0 C 4.6 km/h (1 Bft)
28.12.2007 14:00 -0.9 C 84 % 1033.8 hPa 0.0 l/m 2.4 km/h (1 Bft) SO 0.00 h 60 W/m -3.3 C -1.3 C 4.5 km/h (1 Bft)
28.12.2007 15:00 -0.8 C 82 % 1033.5 hPa 0.0 l/m 1.3 km/h (1 Bft) SO 0.00 h 39 W/m -3.4 C -0.9 C 2.8 km/h (1 Bft)
28.12.2007 16:00 -0.9 C 83 % 1033.4 hPa 0.0 l/m 1.5 km/h (1 Bft) SO 0.03 h 14 W/m -3.5 C -1.1 C 2.9 km/h (1 Bft)
28.12.2007 17:00 -1.1 C 84 % 1033.2 hPa 0.0 l/m 1.1 km/h (1 Bft) SO 0.00 h 0 W/m -3.5 C -1.3 C 2.3 km/h (1 Bft)
28.12.2007 18:00 -1.2 C 85 % 1032.9 hPa 0.0 l/m 0.7 km/h (0 Bft) S-SO 0.00 h 0 W/m -3.4 C -1.3 C 2.2 km/h (1 Bft)
28.12.2007 19:00 -1.5 C 86 % 1032.7 hPa 0.0 l/m 1.0 km/h (0 Bft) SO 0.00 h 0 W/m -3.6 C -1.5 C 2.3 km/h (1 Bft)
28.12.2007 20:00 -1.7 C 87 % 1032.5 hPa 0.0 l/m 0.6 km/h (0 Bft) SO 0.00 h 0 W/m -3.6 C -1.7 C 2.0 km/h (1 Bft)
28.12.2007 21:00 -1.9 C 87 % 1032.3 hPa 0.0 l/m 3.4 km/h (1 Bft) SO 0.00 h 0 W/m -3.8 C -2.7 C 5.7 km/h (1 Bft)
28.12.2007 22:00 -2.2 C 87 % 1031.9 hPa 0.0 l/m 2.1 km/h (1 Bft) SO 0.00 h 0 W/m -4.1 C -2.4 C 4.2 km/h (1 Bft)
28.12.2007 23:00 -2.4 C 87 % 1031.6 hPa 0.0 l/m 3.4 km/h (1 Bft) SO 0.00 h 0 W/m -4.3 C -3.2 C 6.0 km/h (2 Bft)
29.12.2007 00:00 -2.5 C 88 % 1031.1 hPa 0.0 l/m 3.7 km/h (1 Bft) SO 0.00 h 0 W/m -4.2 C -3.3 C 6.1 km/h (2 Bft)
29.12.2007 01:00 -2.5 C 88 % 1030.5 hPa 0.0 l/m 3.9 km/h (1 Bft) SO 0.00 h 0 W/m -4.3 C -3.4 C 6.4 km/h (2 Bft)
29.12.2007 02:00 -2.5 C 88 % 1030.2 hPa 0.0 l/m 4.1 km/h (1 Bft) SO 0.00 h 0 W/m -4.2 C -3.4 C 6.5 km/h (2 Bft)
29.12.2007 03:00 -2.4 C 88 % 1030.0 hPa 0.0 l/m 4.4 km/h (1 Bft) S-SO 0.00 h 0 W/m -4.1 C -3.4 C 7.3 km/h (2 Bft)
29.12.2007 04:00 -2.4 C 88 % 1029.9 hPa 0.0 l/m 3.7 km/h (1 Bft) S-SO 0.00 h 0 W/m -4.1 C -3.2 C 6.4 km/h (2 Bft)
29.12.2007 05:00 -2.3 C 88 % 1029.5 hPa 0.0 l/m 3.4 km/h (1 Bft) S-SO 0.00 h 0 W/m -4.0 C -3.0 C 6.4 km/h (2 Bft)
29.12.2007 06:00 -2.5 C 88 % 1029.3 hPa 0.0 l/m 4.7 km/h (1 Bft) S-SO 0.00 h 0 W/m -4.2 C -3.7 C 8.1 km/h (2 Bft)
29.12.2007 07:00 -2.7 C 88 % 1028.9 hPa 0.0 l/m 4.0 km/h (1 Bft) SO 0.00 h 0 W/m -4.4 C -3.8 C 6.6 km/h (2 Bft)
29.12.2007 08:00 -2.8 C 88 % 1028.9 hPa 0.0 l/m 2.1 km/h (1 Bft) SO 0.00 h 11 W/m -4.6 C -3.0 C 4.3 km/h (1 Bft)
29.12.2007 09:00 -2.7 C 87 % 1028.8 hPa 0.0 l/m 4.0 km/h (1 Bft) S-SO 0.00 h 46 W/m -4.6 C -3.8 C 7.6 km/h (2 Bft)
29.12.2007 10:00 -2.0 C 85 % 1028.6 hPa 0.0 l/m 2.8 km/h (1 Bft) S 0.60 h 137 W/m -4.2 C -2.4 C 6.0 km/h (2 Bft)
29.12.2007 11:00 -0.8 C 81 % 1028.0 hPa 0.0 l/m 3.6 km/h (1 Bft) S 1.00 h 228 W/m -3.7 C -1.5 C 6.8 km/h (2 Bft)
29.12.2007 12:00 0.5 C 76 % 1026.8 hPa 0.0 l/m 5.3 km/h (1 Bft) S 1.00 h 247 W/m -3.2 C -0.9 C 9.2 km/h (2 Bft)
29.12.2007 13:00 1.6 C 73 % 1026.0 hPa 0.0 l/m 4.8 km/h (1 Bft) S 1.00 h 221 W/m -2.7 C 0.5 C 8.6 km/h (2 Bft)
29.12.2007 14:00 2.5 C 70 % 1025.2 hPa 0.0 l/m 4.0 km/h (1 Bft) S-SO 0.70 h 152 W/m -2.4 C 2.0 C 7.7 km/h (2 Bft)
29.12.2007 15:00 3.0 C 69 % 1024.9 hPa 0.0 l/m 2.6 km/h (1 Bft) S-SW 0.33 h 67 W/m -2.1 C 2.7 C 5.5 km/h (1 Bft)
29.12.2007 16:00 2.2 C 76 % 1024.9 hPa 0.0 l/m 0.1 km/h (0 Bft) S-SW 0.00 h 10 W/m -1.6 C 2.2 C 0.7 km/h (0 Bft)
29.12.2007 17:00 1.9 C 78 % 1024.8 hPa 0.0 l/m 0.5 km/h (0 Bft) S 0.00 h 0 W/m -1.6 C 1.9 C 1.4 km/h (1 Bft)
29.12.2007 18:00 1.3 C 83 % 1024.9 hPa 0.0 l/m 0.5 km/h (0 Bft) O-SO 0.00 h 0 W/m -1.3 C 1.3 C 1.5 km/h (1 Bft)
29.12.2007 19:00 0.7 C 89 % 1025.2 hPa 0.6 l/m 0.7 km/h (0 Bft) S-SO 0.00 h 0 W/m -0.9 C 0.7 C 1.7 km/h (1 Bft)
29.12.2007 20:00 0.8 C 94 % 1025.0 hPa 0.2 l/m 0.7 km/h (0 Bft) O-SO 0.00 h 0 W/m -0.2 C 0.8 C 1.2 km/h (1 Bft)
29.12.2007 21:00 0.9 C 95 % 1024.8 hPa 0.0 l/m 1.1 km/h (0 Bft) O-SO 0.00 h 0 W/m 0.2 C 0.7 C 2.2 km/h (1 Bft)
29.12.2007 22:00 0.6 C 97 % 1024.2 hPa 0.8 l/m 0.1 km/h (0 Bft) O 0.00 h 0 W/m 0.1 C 0.6 C 0.5 km/h (0 Bft)
29.12.2007 23:00 0.7 C 98 % 1023.9 hPa 0.8 l/m 0.1 km/h (0 Bft) O 0.00 h 0 W/m 0.3 C 0.7 C 0.4 km/h (0 Bft)
30.12.2007 00:00 0.7 C 99 % 1023.8 hPa 0.8 l/m 1.4 km/h (1 Bft) O 0.00 h 0 W/m 0.5 C 0.6 C 2.5 km/h (1 Bft)
30.12.2007 01:00 1.1 C 99 % 1023.3 hPa 0.4 l/m 1.4 km/h (1 Bft) O-SO 0.00 h 0 W/m 1.0 C 1.0 C 2.5 km/h (1 Bft)
30.12.2007 02:00 1.1 C 99 % 1023.4 hPa 1.2 l/m 0.4 km/h (0 Bft) O-SO 0.00 h 0 W/m 1.0 C 1.1 C 0.8 km/h (0 Bft)
30.12.2007 03:00 1.4 C 99 % 1023.6 hPa 1.4 l/m 2.1 km/h (1 Bft) O-SO 0.00 h 0 W/m 1.3 C 1.2 C 3.3 km/h (1 Bft)
30.12.2007 04:00 2.7 C 100 % 1023.7 hPa 0.2 l/m 2.7 km/h (1 Bft) S-SO 0.00 h 0 W/m 2.7 C 2.2 C 4.5 km/h (1 Bft)
30.12.2007 05:00 3.1 C 100 % 1024.1 hPa 0.0 l/m 3.4 km/h (1 Bft) W 0.00 h 0 W/m 3.1 C 2.5 C 6.2 km/h (2 Bft)
30.12.2007 06:00 3.4 C 100 % 1024.6 hPa 0.0 l/m 5.9 km/h (2 Bft) W 0.00 h 0 W/m 3.4 C 2.1 C 9.3 km/h (2 Bft)
30.12.2007 07:00 2.7 C 99 % 1025.3 hPa 0.0 l/m 3.1 km/h (1 Bft) W 0.00 h 0 W/m 2.6 C 2.2 C 4.9 km/h (1 Bft)
30.12.2007 08:00 2.3 C 99 % 1026.0 hPa 0.0 l/m 4.1 km/h (1 Bft) SO 0.00 h 11 W/m 2.2 C 1.4 C 6.1 km/h (2 Bft)
30.12.2007 09:00 2.6 C 99 % 1026.5 hPa 0.0 l/m 1.9 km/h (1 Bft) S 0.35 h 87 W/m 2.4 C 2.4 C 3.7 km/h (1 Bft)
30.12.2007 10:00 3.4 C 96 % 1026.6 hPa 0.0 l/m 2.8 km/h (1 Bft) S-SW 0.20 h 98 W/m 2.9 C 3.1 C 5.9 km/h (2 Bft)
30.12.2007 11:00 4.2 C 94 % 1026.6 hPa 0.0 l/m 2.4 km/h (1 Bft) S-SO 0.40 h 183 W/m 3.3 C 4.1 C 4.9 km/h (1 Bft)
30.12.2007 12:00 5.2 C 89 % 1026.3 hPa 0.0 l/m 1.2 km/h (1 Bft) SW 0.00 h 101 W/m 3.5 C 5.2 C 3.2 km/h (1 Bft)
30.12.2007 13:00 5.0 C 88 % 1026.2 hPa 0.0 l/m 5.4 km/h (1 Bft) W 0.00 h 72 W/m 3.2 C 4.0 C 8.5 km/h (2 Bft)
30.12.2007 14:00 4.8 C 85 % 1026.2 hPa 0.0 l/m 9.3 km/h (2 Bft) W 0.00 h 48 W/m 2.5 C 2.7 C 14.0 km/h (3 Bft)
30.12.2007 15:00 4.6 C 84 % 1026.8 hPa 0.0 l/m 5.7 km/h (1 Bft) W 0.00 h 23 W/m 2.1 C 3.6 C 9.1 km/h (2 Bft)
30.12.2007 16:00 4.6 C 82 % 1027.3 hPa 0.0 l/m 4.9 km/h (1 Bft) W-SW 0.00 h 7 W/m 1.8 C 3.8 C 7.5 km/h (2 Bft)
30.12.2007 17:00 4.5 C 82 % 1027.9 hPa 0.0 l/m 6.0 km/h (2 Bft) W 0.00 h 0 W/m 1.7 C 3.3 C 9.4 km/h (2 Bft)
30.12.2007 18:00 4.2 C 84 % 1028.4 hPa 0.0 l/m 3.3 km/h (1 Bft) W 0.00 h 0 W/m 1.7 C 3.7 C 5.6 km/h (1 Bft)
30.12.2007 19:00 4.1 C 85 % 1029.2 hPa 0.0 l/m 5.7 km/h (1 Bft) W 0.00 h 0 W/m 1.8 C 2.9 C 8.4 km/h (2 Bft)
30.12.2007 20:00 4.0 C 86 % 1029.6 hPa 0.0 l/m 4.4 km/h (1 Bft) W-NW 0.00 h 0 W/m 1.9 C 3.2 C 7.0 km/h (2 Bft)
30.12.2007 21:00 3.8 C 87 % 1029.5 hPa 0.0 l/m 1.2 km/h (1 Bft) W 0.00 h 0 W/m 1.8 C 3.8 C 3.1 km/h (1 Bft)
30.12.2007 22:00 3.3 C 88 % 1029.5 hPa 0.0 l/m 2.7 km/h (1 Bft) W 0.00 h 0 W/m 1.5 C 3.1 C 4.8 km/h (1 Bft)
30.12.2007 23:00 2.9 C 88 % 1029.4 hPa 0.0 l/m 0.5 km/h (0 Bft) W-NW 0.00 h 0 W/m 1.1 C 2.9 C 1.6 km/h (1 Bft)
Min-Datum _ 24.12.07 29.12.07 30.12.07 - 24.12.07 - - - 24.12.07 24.12.07 24.12.07
_ Min-Zeit 04:00 15:41 01:15 - 00:00 - - - 03:51 04:09 00:03
Minimum _ -5.4 C 68 % 1023.3 hPa - 0.0 km/h (0 Bft) - - - -6.7 C -8.6 C 0.0 km/h (0 Bft)
Max-Datum _ 30.12.07 30.12.07 27.12.07 30.12.07 30.12.07 - 28.12.07 30.12.07 30.12.07 30.12.07 30.12.07
_ Max-Zeit 11:55 03:58 20:15 03:00 13:42 - 16:28 11:49 11:50 11:55 14:21
Maximum _ 5.3 C 100 % 1038.0 hPa 1.4 l/m 14.3 km/h
W (3 Bft)
- 0.02 h 380 W/m 4.1 C 5.3 C 24.3 km/h
W (4 Bft)
Durchschnitt _ -1.3 C 90 % 1030.7 hPa #6.6 l/m 1.8 km/h (1 Bft) O-SO #5:37 h 61 W/m -2.8 C -1.6 C 3.6 km/h (1 Bft)
© Kaiko 2007